createdAt,value
2023-02-27T00:01:12.518Z,-1.07
2023-02-27T00:03:46.468Z,-0.97
2023-02-27T00:06:18.179Z,-1.07
2023-02-27T00:08:49.323Z,-1.07
2023-02-27T00:11:20.078Z,-1.01
2023-02-27T00:13:51.348Z,-1.27
2023-02-27T00:16:22.588Z,-1.33
2023-02-27T00:19:01.489Z,-1.22
2023-02-27T00:21:37.661Z,-1.11
2023-02-27T00:24:09.161Z,-0.82
2023-02-27T00:26:39.628Z,-1.16
2023-02-27T00:29:11.243Z,-1.12
2023-02-27T00:31:41.389Z,-1.34
2023-02-27T00:34:15.769Z,-1.39
2023-02-27T00:36:46.185Z,-1.32
2023-02-27T00:39:16.288Z,-1.24
2023-02-27T00:41:46.453Z,-1.18
2023-02-27T00:44:16.576Z,-1.15
2023-02-27T00:46:49.871Z,-1.31
2023-02-27T00:49:22.900Z,-1.30
2023-02-27T00:51:52.744Z,-1.26
2023-02-27T00:54:22.690Z,-1.20
2023-02-27T00:56:53.408Z,-1.34
2023-02-27T00:59:23.732Z,-1.30
2023-02-27T01:01:55.745Z,-1.27
2023-02-27T01:04:28.711Z,-1.45
2023-02-27T01:06:59.264Z,-1.49
2023-02-27T01:09:31.448Z,-1.41
2023-02-27T01:12:01.671Z,-1.33
2023-02-27T01:14:34.136Z,-1.38
2023-02-27T01:17:04.424Z,-1.53
2023-02-27T01:19:39.878Z,-1.38
2023-02-27T01:22:13.083Z,-1.40
2023-02-27T01:24:44.897Z,-1.59
2023-02-27T01:27:16.947Z,-1.50
2023-02-27T01:29:46.965Z,-1.40
2023-02-27T01:32:17.126Z,-1.26
2023-02-27T01:34:49.845Z,-1.35
2023-02-27T01:37:19.869Z,-1.41
2023-02-27T01:39:49.806Z,-1.47
2023-02-27T01:42:24.911Z,-1.25
2023-02-27T01:45:32.536Z,-1.52
2023-02-27T01:48:16.549Z,-1.33
2023-02-27T01:50:53.713Z,-1.45
2023-02-27T01:53:26.057Z,-1.52
2023-02-27T01:56:01.196Z,-1.29
2023-02-27T01:58:32.194Z,-1.37
2023-02-27T02:01:02.042Z,-1.49
2023-02-27T02:03:45.496Z,-1.21
2023-02-27T02:06:17.881Z,-1.28
2023-02-27T02:08:51.977Z,-1.62
2023-02-27T02:11:24.966Z,-1.59
2023-02-27T02:14:01.517Z,-1.49
2023-02-27T02:16:52.294Z,-1.63
2023-02-27T02:19:50.894Z,-1.67
2023-02-27T02:23:02.179Z,-1.54
2023-02-27T02:26:09.489Z,-1.76
2023-02-27T02:29:18.407Z,-1.72
2023-02-27T02:32:24.511Z,-1.55
2023-02-27T02:35:21.634Z,-1.63
2023-02-27T02:38:22.341Z,-1.59
2023-02-27T02:41:03.443Z,-1.57
2023-02-27T02:43:47.587Z,-1.58
2023-02-27T02:46:34.169Z,-1.60
2023-02-27T02:49:17.481Z,-1.53
2023-02-27T02:51:56.601Z,-1.57
2023-02-27T02:54:41.342Z,-1.66
2023-02-27T02:57:20.316Z,-1.66
2023-02-27T02:59:59.974Z,-1.70
2023-02-27T03:02:36.813Z,-1.62
2023-02-27T03:05:12.332Z,-1.76
2023-02-27T03:07:49.595Z,-1.80
2023-02-27T03:10:29.385Z,-1.74
2023-02-27T03:13:05.602Z,-1.84
2023-02-27T03:15:43.563Z,-1.84
2023-02-27T03:18:22.075Z,-1.86
2023-02-27T03:20:58.200Z,-1.74
2023-02-27T03:23:35.509Z,-1.67
2023-02-27T03:26:11.748Z,-1.83
2023-02-27T03:28:51.823Z,-1.83
2023-02-27T03:31:33.978Z,-1.85
2023-02-27T03:34:15.885Z,-1.84
2023-02-27T03:36:57.550Z,-1.74
2023-02-27T03:39:40.513Z,-1.80
2023-02-27T03:42:20.576Z,-1.80
2023-02-27T03:45:21.824Z,-1.87
2023-02-27T03:47:54.475Z,-1.62
2023-02-27T03:50:25.456Z,-1.63
2023-02-27T03:52:56.614Z,-1.74
2023-02-27T03:55:33.472Z,-1.77
2023-02-27T03:58:08.509Z,-1.65
2023-02-27T04:00:38.553Z,-1.67
2023-02-27T04:03:09.427Z,-1.67
2023-02-27T04:05:39.757Z,-1.63
2023-02-27T04:08:32.097Z,-1.57
2023-02-27T04:11:30.456Z,-1.47
2023-02-27T04:14:23.390Z,-1.63
2023-02-27T04:17:35.526Z,-1.63
2023-02-27T04:20:20.837Z,-1.50
2023-02-27T04:22:56.148Z,-1.62
2023-02-27T04:25:42.757Z,-1.57
2023-02-27T04:28:21.667Z,-1.62
2023-02-27T04:31:07.048Z,-1.65
2023-02-27T04:33:48.011Z,-1.57
2023-02-27T04:36:27.562Z,-1.52
2023-02-27T04:39:08.733Z,-1.50
2023-02-27T04:41:47.768Z,-1.59
2023-02-27T04:44:23.936Z,-1.58
2023-02-27T04:47:00.591Z,-1.48
2023-02-27T04:49:36.552Z,-1.56
2023-02-27T04:52:14.053Z,-1.62
2023-02-27T04:54:50.249Z,-1.49
2023-02-27T04:57:28.166Z,-1.56
2023-02-27T05:00:01.906Z,-1.59
2023-02-27T05:02:40.249Z,-1.60
2023-02-27T05:05:16.472Z,-1.61
2023-02-27T05:07:53.447Z,-1.60
2023-02-27T05:10:32.605Z,-1.54
2023-02-27T05:13:11.076Z,-1.57
2023-02-27T05:15:48.358Z,-1.49
2023-02-27T05:18:24.451Z,-1.74
2023-02-27T05:21:04.290Z,-1.53
2023-02-27T05:23:47.030Z,-1.56
2023-02-27T05:26:23.308Z,-1.72
2023-02-27T05:29:02.608Z,-1.73
2023-02-27T05:31:45.612Z,-1.72
2023-02-27T05:34:24.881Z,-1.70
2023-02-27T05:37:03.139Z,-1.64
2023-02-27T05:39:38.331Z,-1.75
2023-02-27T05:42:16.748Z,-1.78
2023-02-27T05:44:53.598Z,-1.81
2023-02-27T05:47:28.819Z,-1.77
2023-02-27T05:50:10.063Z,-1.79
2023-02-27T05:52:43.665Z,-1.83
2023-02-27T05:55:22.162Z,-1.75
2023-02-27T05:58:00.096Z,-1.80
2023-02-27T06:00:38.260Z,-1.75
2023-02-27T06:03:08.953Z,-1.68
2023-02-27T06:05:47.061Z,-1.73
2023-02-27T06:08:16.922Z,-1.83
2023-02-27T06:10:47.504Z,-1.80
2023-02-27T06:13:18.107Z,-1.62
2023-02-27T06:15:52.543Z,-1.87
2023-02-27T06:18:23.401Z,-1.86
2023-02-27T06:20:57.891Z,-1.78
2023-02-27T06:23:28.031Z,-1.55
2023-02-27T06:25:58.225Z,-1.68
2023-02-27T06:28:28.398Z,-1.65
2023-02-27T06:30:59.925Z,-1.73
2023-02-27T06:33:29.825Z,-1.70
2023-02-27T06:36:02.587Z,-1.58
2023-02-27T06:38:34.269Z,-1.59
2023-02-27T06:41:04.491Z,-1.52
2023-02-27T06:43:38.726Z,-1.55
2023-02-27T06:46:12.767Z,-1.37
2023-02-27T06:48:42.839Z,-1.35
2023-02-27T06:51:16.230Z,-1.39
2023-02-27T06:53:47.599Z,-1.27
2023-02-27T06:56:19.814Z,-1.38
2023-02-27T06:58:49.960Z,-1.30
2023-02-27T07:01:20.084Z,-1.14
2023-02-27T07:03:50.293Z,-1.11
2023-02-27T07:07:33.328Z,-0.99
2023-02-27T07:09:13.061Z,-1.09
2023-02-27T07:11:46.346Z,-0.98
2023-02-27T07:14:16.771Z,-0.63
2023-02-27T07:16:48.236Z,-0.82
2023-02-27T07:19:18.654Z,-0.65
2023-02-27T07:21:53.697Z,-0.65
2023-02-27T07:24:25.603Z,-0.67
2023-02-27T07:26:56.530Z,-0.69
2023-02-27T07:29:27.990Z,-0.52
2023-02-27T07:32:04.001Z,-0.61
2023-02-27T07:34:34.814Z,-0.33
2023-02-27T07:37:09.712Z,-0.49
2023-02-27T07:39:40.900Z,-0.50
2023-02-27T07:42:10.856Z,-0.52
2023-02-27T07:44:43.292Z,-0.39
2023-02-27T07:47:14.416Z,-0.41
2023-02-27T07:49:44.328Z,-0.53
2023-02-27T07:52:16.787Z,-0.57
2023-02-27T07:54:47.160Z,-0.70
2023-02-27T07:57:18.510Z,-0.56
2023-02-27T07:59:48.625Z,-0.39
2023-02-27T08:02:20.977Z,-0.52
2023-02-27T08:04:52.796Z,-0.55
2023-02-27T08:07:26.725Z,-0.37
2023-02-27T08:09:57.531Z,-0.17
2023-02-27T08:12:27.450Z,-0.39
2023-02-27T08:14:58.667Z,-0.15
2023-02-27T08:17:28.732Z,-0.31
2023-02-27T08:19:59.393Z,-0.32
2023-02-27T08:22:32.560Z,-0.31
2023-02-27T08:25:03.341Z,0.31
2023-02-27T08:27:34.157Z,0.24
2023-02-27T08:30:05.317Z,0.11
2023-02-27T08:32:37.353Z,0.15
2023-02-27T08:35:09.172Z,0.48
2023-02-27T08:37:44.278Z,0.64
2023-02-27T08:40:15.364Z,0.34
2023-02-27T08:42:46.349Z,0.18
2023-02-27T08:45:19.372Z,-0.04
2023-02-27T08:47:49.526Z,0.01
2023-02-27T08:50:23.076Z,-0.14
2023-02-27T08:52:55.511Z,-0.11
2023-02-27T08:55:29.244Z,-0.10
2023-02-27T08:58:02.719Z,-0.02
2023-02-27T09:00:35.129Z,-0.04
2023-02-27T09:03:05.458Z,-0.01
2023-02-27T09:05:37.678Z,0.13
2023-02-27T09:08:11.630Z,0.22
2023-02-27T09:10:42.300Z,0.01
2023-02-27T09:13:12.933Z,-0.19
2023-02-27T09:15:42.865Z,-0.07
2023-02-27T09:18:12.936Z,-0.23
2023-02-27T09:20:42.878Z,-0.16
2023-02-27T09:23:15.313Z,-0.17
2023-02-27T09:25:45.310Z,-0.30
2023-02-27T09:28:15.404Z,-0.15
2023-02-27T09:30:47.699Z,0.09
2023-02-27T09:33:18.009Z,0.01
2023-02-27T09:35:47.954Z,0.21
2023-02-27T09:38:20.358Z,0.16
2023-02-27T09:40:55.247Z,0.12
2023-02-27T09:43:35.005Z,0.28
2023-02-27T09:46:08.060Z,0.09
2023-02-27T09:48:47.627Z,-0.16
2023-02-27T09:51:20.174Z,-0.15
2023-02-27T09:53:55.619Z,-0.17
2023-02-27T09:56:30.468Z,-0.49
2023-02-27T09:59:14.911Z,-0.48
2023-02-27T10:01:50.863Z,-0.39
2023-02-27T10:04:34.757Z,-0.31
2023-02-27T10:07:16.712Z,-0.22
2023-02-27T10:10:04.832Z,-0.26
2023-02-27T10:12:55.119Z,-0.35
2023-02-27T10:15:31.773Z,-0.40
2023-02-27T10:18:23.573Z,-0.16
2023-02-27T10:21:00.480Z,0.01
2023-02-27T10:23:38.767Z,0.29
2023-02-27T10:26:26.490Z,0.21
2023-02-27T10:28:57.393Z,0.08
2023-02-27T10:31:34.260Z,0.26
2023-02-27T10:34:05.321Z,0.14
2023-02-27T10:36:36.776Z,0.10
2023-02-27T10:39:16.945Z,0.19
2023-02-27T10:41:50.306Z,-0.21
2023-02-27T10:44:21.514Z,-0.11
2023-02-27T10:46:52.252Z,-0.14
2023-02-27T10:49:24.631Z,-0.03
2023-02-27T10:52:10.818Z,0.14
2023-02-27T10:54:43.270Z,0.19
2023-02-27T10:57:44.939Z,-0.02
2023-02-27T11:00:31.274Z,-0.17
2023-02-27T11:03:02.290Z,0.05
2023-02-27T11:05:36.040Z,0.06
2023-02-27T11:08:23.777Z,0.13
2023-02-27T11:11:04.281Z,0.21
2023-02-27T11:13:40.330Z,0.22
2023-02-27T11:16:14.635Z,0.10
2023-02-27T11:18:47.904Z,0.23
2023-02-27T11:21:25.442Z,0.07
2023-02-27T11:24:03.362Z,0.26
2023-02-27T11:26:37.850Z,0.35
2023-02-27T11:29:18.414Z,0.42
2023-02-27T11:31:53.968Z,0.12
2023-02-27T11:34:29.692Z,0.15
2023-02-27T11:37:04.056Z,0.57
2023-02-27T11:39:39.222Z,0.33
2023-02-27T11:42:26.190Z,0.21
2023-02-27T11:45:03.698Z,0.23
2023-02-27T11:47:37.810Z,0.18
2023-02-27T11:50:44.021Z,0.20
2023-02-27T11:53:40.783Z,0.15
2023-02-27T11:56:16.000Z,0.29
2023-02-27T11:58:53.565Z,0.30
2023-02-27T12:01:32.770Z,0.17
2023-02-27T12:04:09.389Z,0.18
2023-02-27T12:06:45.453Z,0.38
2023-02-27T12:09:33.215Z,0.42
2023-02-27T12:12:10.426Z,0.43
2023-02-27T12:14:50.156Z,0.50
2023-02-27T12:17:32.356Z,0.66
2023-02-27T12:20:24.804Z,0.50
2023-02-27T12:22:57.707Z,0.50
2023-02-27T12:25:41.113Z,0.55
2023-02-27T12:28:26.899Z,0.32
2023-02-27T12:31:10.090Z,0.17
2023-02-27T12:33:52.648Z,0.17
2023-02-27T12:36:22.735Z,0.29
2023-02-27T12:38:52.787Z,0.34
2023-02-27T12:41:39.563Z,0.04
2023-02-27T12:44:31.828Z,0.34
2023-02-27T12:47:18.488Z,0.38
2023-02-27T12:50:01.747Z,0.10
2023-02-27T12:52:44.056Z,0.23
2023-02-27T12:55:20.735Z,0.23
2023-02-27T12:58:15.266Z,-0.13
2023-02-27T13:00:50.987Z,0.09
2023-02-27T13:03:28.625Z,0.08
2023-02-27T13:06:19.963Z,0.15
2023-02-27T13:09:12.424Z,0.36
2023-02-27T13:11:55.914Z,0.55
2023-02-27T13:14:40.284Z,0.43
2023-02-27T13:17:21.057Z,0.27
2023-02-27T13:19:55.772Z,0.10
2023-02-27T13:22:40.842Z,0.18
2023-02-27T13:25:18.317Z,0.45
2023-02-27T13:27:54.967Z,0.52
2023-02-27T13:30:30.903Z,0.46
2023-02-27T13:33:13.606Z,0.59
2023-02-27T13:35:52.226Z,0.64
2023-02-27T13:38:44.225Z,0.63
2023-02-27T13:41:41.710Z,0.86
2023-02-27T13:44:51.392Z,0.57
2023-02-27T13:47:53.025Z,0.78
2023-02-27T13:50:55.588Z,0.64
2023-02-27T13:53:26.111Z,0.90
2023-02-27T13:56:25.122Z,0.77
2023-02-27T13:58:57.881Z,0.61
2023-02-27T14:01:33.434Z,0.49
2023-02-27T14:04:10.490Z,0.29
2023-02-27T14:06:51.749Z,0.28
2023-02-27T14:09:26.345Z,0.25
2023-02-27T14:12:05.173Z,0.09
2023-02-27T14:14:44.510Z,0.11
2023-02-27T14:17:16.125Z,-0.03
2023-02-27T14:20:03.294Z,-0.03
2023-02-27T14:22:46.241Z,-0.03
2023-02-27T14:25:29.669Z,0.01
2023-02-27T14:28:05.056Z,0.03
2023-02-27T14:30:45.626Z,0.28
2023-02-27T14:33:39.165Z,0.00
2023-02-27T14:36:17.357Z,0.25
2023-02-27T14:38:47.836Z,0.07
2023-02-27T14:41:39.022Z,0.01
2023-02-27T14:44:22.043Z,-0.05
2023-02-27T14:46:55.556Z,-0.26
2023-02-27T14:49:31.995Z,1.31
2023-02-27T14:52:16.276Z,1.11
2023-02-27T14:54:46.801Z,0.71
2023-02-27T14:57:30.157Z,0.18
2023-02-27T15:00:05.179Z,0.71
2023-02-27T15:02:39.400Z,-0.09
2023-02-27T15:05:22.449Z,-0.22
2023-02-27T15:07:52.729Z,-0.42
2023-02-27T15:10:31.016Z,-0.28
2023-02-27T15:13:02.872Z,-0.31
2023-02-27T15:15:37.770Z,-0.05
2023-02-27T15:18:16.631Z,0.15
2023-02-27T15:20:46.935Z,-0.03
2023-02-27T15:23:27.630Z,0.14
2023-02-27T15:25:59.959Z,0.16
2023-02-27T15:28:38.901Z,0.66
2023-02-27T15:31:21.181Z,0.12
2023-02-27T15:33:53.324Z,-0.03
2023-02-27T15:36:28.469Z,-0.11
2023-02-27T15:39:18.712Z,-0.12
2023-02-27T15:41:52.640Z,-0.20
2023-02-27T15:44:29.151Z,-0.29
2023-02-27T15:47:02.804Z,-0.19
2023-02-27T15:49:33.136Z,-0.25
2023-02-27T15:52:07.463Z,-0.37
2023-02-27T15:54:39.839Z,-0.42
2023-02-27T15:57:11.425Z,-0.39
2023-02-27T15:59:46.890Z,-0.36
2023-02-27T16:02:27.433Z,-0.28
2023-02-27T16:04:59.100Z,-0.24
2023-02-27T16:07:33.287Z,-0.39
2023-02-27T16:10:19.809Z,-0.29
2023-02-27T16:12:51.389Z,-0.13
2023-02-27T16:15:29.149Z,-0.21
2023-02-27T16:18:08.837Z,-0.34
2023-02-27T16:20:45.404Z,-0.16
2023-02-27T16:23:22.876Z,-0.31
2023-02-27T16:26:21.328Z,-0.38
2023-02-27T16:28:55.611Z,-0.40
2023-02-27T16:31:31.084Z,-0.40
2023-02-27T16:34:16.566Z,-0.35
2023-02-27T16:36:56.737Z,-0.41
2023-02-27T16:39:27.659Z,-0.37
2023-02-27T16:42:00.059Z,-0.27
2023-02-27T16:44:30.120Z,-0.37
2023-02-27T16:47:02.263Z,-0.34
2023-02-27T16:49:35.006Z,-0.43
2023-02-27T16:52:06.084Z,-0.34
2023-02-27T16:54:37.972Z,-0.47
2023-02-27T16:57:18.252Z,-0.58
2023-02-27T16:59:48.386Z,-0.53
2023-02-27T17:02:19.837Z,-0.65
2023-02-27T17:04:56.055Z,-0.63
2023-02-27T17:07:27.631Z,-0.38
2023-02-27T17:09:57.834Z,-0.49
2023-02-27T17:12:28.086Z,-0.65
2023-02-27T17:14:58.143Z,-0.39
2023-02-27T17:17:28.866Z,-0.60
2023-02-27T17:20:03.359Z,-0.46
2023-02-27T17:22:33.284Z,-0.65
2023-02-27T17:25:03.949Z,-0.52
2023-02-27T17:27:34.114Z,-0.54
2023-02-27T17:30:04.449Z,-0.49
2023-02-27T17:32:35.003Z,-0.71
2023-02-27T17:35:08.993Z,-0.75
2023-02-27T17:37:38.823Z,-0.70
2023-02-27T17:40:12.299Z,-0.77
2023-02-27T17:42:42.757Z,-0.80
2023-02-27T17:45:14.586Z,-0.81
2023-02-27T17:47:44.452Z,-0.82
2023-02-27T17:50:17.757Z,-0.84
2023-02-27T17:52:47.859Z,-0.96
2023-02-27T17:55:20.787Z,-0.98
2023-02-27T17:57:50.631Z,-1.00
2023-02-27T18:00:22.685Z,-1.03
2023-02-27T18:02:52.671Z,-1.02
2023-02-27T18:05:25.158Z,-1.04
2023-02-27T18:07:55.670Z,-1.08
2023-02-27T18:10:25.491Z,-1.10
2023-02-27T18:12:55.746Z,-1.03
2023-02-27T18:15:25.599Z,-1.07
2023-02-27T18:17:55.756Z,-1.12
2023-02-27T18:20:28.642Z,-1.22
2023-02-27T18:22:58.989Z,-1.24
2023-02-27T18:25:28.957Z,-1.27
2023-02-27T18:28:01.716Z,-1.28
2023-02-27T18:30:33.638Z,-1.28
2023-02-27T18:33:04.241Z,-1.25
2023-02-27T18:35:36.835Z,-1.33
2023-02-27T18:38:07.531Z,-0.82
2023-02-27T18:40:37.699Z,-1.00
2023-02-27T18:43:08.242Z,-1.17
2023-02-27T18:45:39.075Z,-1.26
2023-02-27T18:48:10.401Z,-1.12
2023-02-27T18:50:42.914Z,-1.19
2023-02-27T18:53:13.381Z,-1.28
2023-02-27T18:55:44.529Z,-1.33
2023-02-27T18:58:14.879Z,-1.43
2023-02-27T19:00:45.260Z,-1.55
2023-02-27T19:03:15.486Z,-1.56
2023-02-27T19:05:48.463Z,-1.57
2023-02-27T19:08:19.708Z,-1.67
2023-02-27T19:10:50.055Z,-1.64
2023-02-27T19:13:20.893Z,-1.60
2023-02-27T19:15:51.958Z,-1.60
2023-02-27T19:18:21.885Z,-1.63
2023-02-27T19:20:56.418Z,-1.66
2023-02-27T19:23:27.382Z,-1.76
2023-02-27T19:26:01.290Z,-1.71
2023-02-27T19:28:34.394Z,-1.73
2023-02-27T19:31:09.752Z,-1.63
2023-02-27T19:33:40.679Z,-1.74
2023-02-27T19:36:16.376Z,-1.75
2023-02-27T19:38:46.780Z,-1.66
2023-02-27T19:41:19.381Z,-1.68
2023-02-27T19:43:50.573Z,-1.77
2023-02-27T19:46:24.006Z,-1.70
2023-02-27T19:48:54.924Z,-1.77
2023-02-27T19:51:28.399Z,-1.76
2023-02-27T19:53:59.678Z,-1.80
2023-02-27T19:56:31.925Z,-1.76
2023-02-27T19:59:04.196Z,-1.86
2023-02-27T20:01:39.031Z,-1.56
2023-02-27T20:04:11.247Z,-1.60
2023-02-27T20:06:45.277Z,-1.54
2023-02-27T20:09:21.492Z,-1.69
2023-02-27T20:11:57.127Z,-1.76
2023-02-27T20:14:28.014Z,-1.63
2023-02-27T20:16:58.741Z,-1.62
2023-02-27T20:19:30.343Z,-1.69
2023-02-27T20:22:04.223Z,-1.77
2023-02-27T20:24:34.596Z,-1.65
2023-02-27T20:27:04.572Z,-1.60
2023-02-27T20:29:37.247Z,-1.65
2023-02-27T20:32:09.338Z,-1.63
2023-02-27T20:34:39.575Z,-1.68
2023-02-27T20:37:12.699Z,-1.65
2023-02-27T20:39:43.440Z,-1.73
2023-02-27T20:42:14.156Z,-1.62
2023-02-27T20:44:45.760Z,-1.68
2023-02-27T20:47:15.858Z,-1.54
2023-02-27T20:49:46.135Z,-1.59
2023-02-27T20:52:19.468Z,-1.60
2023-02-27T20:54:49.379Z,-1.57
2023-02-27T20:57:19.793Z,-1.51
2023-02-27T20:59:50.541Z,-1.59
2023-02-27T21:02:20.367Z,-1.56
2023-02-27T21:04:53.674Z,-1.71
2023-02-27T21:07:27.254Z,-1.83
2023-02-27T21:09:57.514Z,-1.73
2023-02-27T21:12:28.057Z,-1.75
2023-02-27T21:14:59.144Z,-1.53
2023-02-27T21:17:30.199Z,-1.63
2023-02-27T21:20:00.190Z,-1.65
2023-02-27T21:22:33.150Z,-1.70
2023-02-27T21:25:05.963Z,-1.65
2023-02-27T21:27:35.955Z,-1.71
2023-02-27T21:30:06.183Z,-1.73
2023-02-27T21:32:36.792Z,-1.77
2023-02-27T21:35:07.253Z,-1.76
2023-02-27T21:37:47.282Z,-1.67
2023-02-27T21:40:17.619Z,-1.72
2023-02-27T21:42:48.452Z,-1.67
2023-02-27T21:45:19.891Z,-1.77
2023-02-27T21:47:50.865Z,-1.72
2023-02-27T21:50:23.102Z,-1.76
2023-02-27T21:52:55.629Z,-1.68
2023-02-27T21:55:26.073Z,-1.73
2023-02-27T21:57:56.753Z,-1.77
2023-02-27T22:00:29.443Z,-1.66
2023-02-27T22:03:00.099Z,-1.65
2023-02-27T22:05:30.084Z,-1.59
2023-02-27T22:08:03.263Z,-1.69
2023-02-27T22:10:36.145Z,-1.77
2023-02-27T22:13:06.343Z,-1.72
2023-02-27T22:15:38.619Z,-1.75
2023-02-27T22:18:08.912Z,-1.71
2023-02-27T22:20:41.539Z,-1.72
2023-02-27T22:23:14.292Z,-1.69
2023-02-27T22:25:44.138Z,-1.67
2023-02-27T22:28:14.425Z,-1.69
2023-02-27T22:30:46.012Z,-1.70
2023-02-27T22:33:17.124Z,-1.68
2023-02-27T22:35:49.509Z,-1.71
2023-02-27T22:38:22.878Z,-1.83
2023-02-27T22:40:52.818Z,-1.70
2023-02-27T22:43:23.266Z,-1.66
2023-02-27T22:45:53.356Z,-1.71
2023-02-27T22:48:23.632Z,-1.70
2023-02-27T22:51:00.057Z,-1.74
2023-02-27T22:53:33.224Z,-1.75
2023-02-27T22:56:05.736Z,-1.74
2023-02-27T22:58:37.815Z,-1.75
2023-02-27T23:01:12.410Z,-1.68
2023-02-27T23:03:44.242Z,-1.74
2023-02-27T23:06:21.895Z,-1.74
2023-02-27T23:08:55.261Z,-1.76
2023-02-27T23:11:25.664Z,-1.79
2023-02-27T23:13:56.313Z,-1.71
2023-02-27T23:16:26.793Z,-1.81
2023-02-27T23:18:58.592Z,-1.80
2023-02-27T23:21:34.410Z,-1.78
2023-02-27T23:24:09.669Z,-1.89
2023-02-27T23:26:40.578Z,-1.83
2023-02-27T23:29:10.861Z,-1.83
2023-02-27T23:31:42.391Z,-1.87
2023-02-27T23:34:13.146Z,-1.77
2023-02-27T23:36:43.341Z,-1.89
2023-02-27T23:39:16.251Z,-1.81
2023-02-27T23:41:46.202Z,-1.94
2023-02-27T23:44:16.088Z,-1.94
2023-02-27T23:46:45.934Z,-1.97
2023-02-27T23:49:16.143Z,-2.05
2023-02-27T23:51:46.462Z,-2.08
2023-02-27T23:54:18.903Z,-1.97
2023-02-27T23:56:50.357Z,-1.89
2023-02-27T23:59:21.311Z,-2.07
